METAR Formatted Surface Weather Observation
Issued by NWS

Home | Current Version | Previous Version | Text Only | Print | Product List | Glossary On
Versions: 1 2 3 4 5 6 7 8 9 10 11 12 13 14 15 16 17 18 19 20 21 22
000
SAUS45 KPUB 291558
MTRSPD
METAR KSPD 291556Z AUTO 17016KT 18/07 A3043 RMK AO1 SLP266 T01780067



USA.gov is the U.S. government's official web portal to all federal, state and local government web resources and services.